Time;durP1;ratioP1;P1;durP2;ratioP2;P2;SDS_P1;SDS_P2;PMS_P1;PMS_P2;Temp;Humidity;BMP_temperature;BMP_pressure;BME280_temperature;BME280_humidity;BME280_pressure;Samples;Min_cycle;Max_cycle;Signal;HPM_P1;HPM_P2
2021/11/29 00:01:23;;;;;;;39.87;27.87;;;;;;;18.87;100.00;99212.25;1702904;84;23137;-73
2021/11/29 00:03:52;;;;;;;40.30;26.00;;;;;;;19.42;100.00;99213.81;1701798;84;21511;-73
2021/11/29 00:06:20;;;;;;;30.83;24.70;;;;;;;19.62;100.00;99208.54;1700516;84;21787;-73
2021/11/29 00:08:48;;;;;;;34.37;25.70;;;;;;;19.72;100.00;99212.20;1697853;84;20993;-74
2021/11/29 00:11:15;;;;;;;34.77;26.63;;;;;;;19.72;100.00;99208.23;1702913;84;21565;-74
2021/11/29 00:13:44;;;;;;;32.80;25.03;;;;;;;19.39;100.00;99201.13;1702146;84;21468;-73
2021/11/29 00:16:11;;;;;;;33.77;24.80;;;;;;;20.16;100.00;99194.59;1702341;84;21562;-73
2021/11/29 00:18:39;;;;;;;34.50;26.70;;;;;;;20.28;100.00;99193.48;1702357;84;21314;-74
2021/11/29 00:21:06;;;;;;;32.63;26.03;;;;;;;20.49;100.00;99190.99;1701229;84;21722;-73
2021/11/29 00:23:35;;;;;;;30.40;23.90;;;;;;;20.39;100.00;99183.10;1689036;84;21076;-76
2021/11/29 00:26:02;;;;;;;38.40;26.20;;;;;;;20.99;100.00;99182.45;1699164;84;21504;-77
2021/11/29 00:28:31;;;;;;;33.17;23.80;;;;;;;19.79;100.00;99182.31;1683757;84;21052;-75
2021/11/29 00:30:58;;;;;;;30.47;24.63;;;;;;;20.75;100.00;99182.89;1688460;84;21397;-75
2021/11/29 00:33:27;;;;;;;37.73;25.70;;;;;;;19.77;100.00;99182.56;1691785;84;20918;-75
2021/11/29 00:35:55;;;;;;;37.37;25.07;;;;;;;19.77;100.00;99182.56;1699021;84;21153;-74
2021/11/29 00:38:24;;;;;;;34.77;23.53;;;;;;;20.11;100.00;99181.38;1700652;84;21004;-74
2021/11/29 00:40:51;;;;;;;32.77;23.63;;;;;;;20.55;100.00;99172.70;1701169;84;21049;-74
2021/11/29 00:43:19;;;;;;;26.97;21.60;;;;;;;20.42;100.00;99185.20;1701638;84;21161;-74
2021/11/29 00:45:46;;;;;;;27.67;21.97;;;;;;;20.45;100.00;99184.64;1700991;84;21278;-74
2021/11/29 00:48:14;;;;;;;37.07;29.47;;;;;;;20.73;100.00;99173.13;1701410;84;21070;-73
2021/11/29 00:50:42;;;;;;;33.77;23.87;;;;;;;20.58;100.00;99160.23;1701059;84;21586;-72
2021/11/29 00:53:11;;;;;;;39.03;27.20;;;;;;;20.71;100.00;99158.81;1677512;83;20983;-74
2021/11/29 00:55:38;;;;;;;37.00;25.73;;;;;;;20.55;100.00;99142.25;1699124;84;21130;-72
2021/11/29 00:58:06;;;;;;;39.83;30.17;;;;;;;20.83;100.00;99137.27;1698731;83;21910;-73
2021/11/29 01:00:35;;;;;;;36.57;27.90;;;;;;;21.05;100.00;99130.98;1698490;84;20995;-74
2021/11/29 01:03:02;;;;;;;37.17;27.37;;;;;;;20.83;100.00;99142.56;1698983;83;21069;-73
2021/11/29 01:05:34;;;;;;;38.57;28.77;;;;;;;20.76;100.00;99146.06;1699138;83;20958;-74
2021/11/29 01:07:58;;;;;;;37.03;26.77;;;;;;;20.90;100.00;99143.83;1698671;82;21789;-74
2021/11/29 01:10:30;;;;;;;34.90;25.73;;;;;;;21.04;100.00;99143.98;1697996;83;21015;-74
2021/11/29 01:12:58;;;;;;;37.40;26.30;;;;;;;21.32;100.00;99148.22;1699211;84;21036;-75
2021/11/29 01:15:29;;;;;;;35.83;25.23;;;;;;;21.16;100.00;99146.79;1699187;84;21044;-75
2021/11/29 01:17:56;;;;;;;33.90;24.32;;;;;;;21.38;100.00;99147.13;1697179;83;21024;-74
2021/11/29 01:20:23;;;;;;;34.67;25.00;;;;;;;20.66;100.00;99140.33;1697754;83;21098;-73
2021/11/29 01:22:51;;;;;;;38.23;26.77;;;;;;;20.66;100.00;99140.33;1698147;84;21126;-74
2021/11/29 01:25:19;;;;;;;43.67;30.50;;;;;;;20.99;100.00;99137.41;1698180;82;21021;-74
2021/11/29 01:27:47;;;;;;;43.70;29.77;;;;;;;21.33;100.00;99137.92;1698374;83;21451;-73
2021/11/29 01:30:16;;;;;;;50.93;34.17;;;;;;;20.96;100.00;99136.64;1698037;83;21022;-73
2021/11/29 01:32:43;;;;;;;56.30;38.83;;;;;;;21.43;100.00;99143.62;1697774;83;21123;-73
2021/11/29 01:35:10;;;;;;;54.43;36.57;;;;;;;20.74;100.00;99144.23;1677005;84;21035;-73
2021/11/29 01:37:39;;;;;;;64.27;41.57;;;;;;;20.89;100.00;99142.79;1698209;84;21086;-73
2021/11/29 01:40:08;;;;;;;67.67;43.57;;;;;;;21.32;100.00;99141.05;1697635;83;21016;-72
2021/11/29 01:42:36;;;;;;;65.50;39.43;;;;;;;21.01;100.00;99139.77;1697891;84;21008;-73
2021/11/29 01:45:04;;;;;;;66.37;44.17;;;;;;;20.50;100.00;99146.27;1698115;84;21152;-73
2021/11/29 01:47:31;;;;;;;68.03;44.97;;;;;;;20.14;100.00;99160.98;1698254;83;20985;-73
2021/11/29 01:49:59;;;;;;;74.27;46.10;;;;;;;20.07;100.00;99156.52;1697700;84;21305;-72
2021/11/29 01:52:26;;;;;;;63.93;41.50;;;;;;;20.51;100.00;99156.32;1698278;83;21557;-76
2021/11/29 01:54:54;;;;;;;55.80;38.13;;;;;;;20.65;100.00;99160.72;1698244;83;21107;-75
2021/11/29 01:57:22;;;;;;;63.90;40.00;;;;;;;20.65;100.00;99160.72;1698433;84;22412;-77
2021/11/29 01:59:49;;;;;;;50.73;35.93;;;;;;;20.20;100.00;99163.09;1697794;83;21679;-74
2021/11/29 02:02:17;;;;;;;57.17;38.00;;;;;;;20.42;100.00;99156.09;1698355;84;21107;-76
2021/11/29 02:04:44;;;;;;;53.77;38.17;;;;;;;20.34;100.00;99165.91;1695846;84;21080;-72
2021/11/29 02:07:11;;;;;;;55.20;37.80;;;;;;;19.49;100.00;99158.83;1691564;84;20990;-75
2021/11/29 02:09:39;;;;;;;55.07;36.13;;;;;;;19.28;100.00;99159.92;1692637;84;21316;-72
2021/11/29 02:12:07;;;;;;;53.83;37.27;;;;;;;18.90;100.00;99152.31;1688509;84;21385;-75
2021/11/29 02:14:35;;;;;;;61.07;39.50;;;;;;;18.64;100.00;99144.88;1686558;84;21023;-75
2021/11/29 02:17:02;;;;;;;55.83;37.77;;;;;;;18.53;100.00;99148.56;1691725;84;22092;-76
2021/11/29 02:19:30;;;;;;;50.67;35.37;;;;;;;18.53;100.00;99148.56;1695249;84;21021;-72
2021/11/29 02:21:57;;;;;;;55.03;34.83;;;;;;;18.76;100.00;99152.57;1691775;84;22630;-76
2021/11/29 02:24:24;;;;;;;58.30;38.30;;;;;;;19.18;100.00;99147.00;1692875;83;21015;-76
2021/11/29 02:26:53;;;;;;;60.73;40.57;;;;;;;19.05;100.00;99150.17;1691671;83;21595;-73
2021/11/29 02:29:20;;;;;;;57.87;39.20;;;;;;;18.64;100.00;99151.48;1692353;84;22395;-76
2021/11/29 02:31:48;;;;;;;58.97;39.00;;;;;;;19.02;100.00;99148.62;1692149;83;21445;-76
2021/11/29 02:34:21;;;;;;;56.47;37.93;;;;;;;19.03;100.00;99140.42;1691875;84;21595;-75
2021/11/29 02:36:49;;;;;;;55.08;37.48;;;;;;;19.21;100.00;99140.41;1691770;84;20935;-74
2021/11/29 02:39:16;;;;;;;51.60;35.73;;;;;;;19.53;100.00;99130.02;1692620;84;20979;-75
2021/11/29 02:41:45;;;;;;;51.43;34.97;;;;;;;19.74;100.00;99128.13;1692589;84;21029;-75
2021/11/29 02:44:12;;;;;;;53.53;35.07;;;;;;;20.05;100.00;99126.92;1672434;84;20934;-75
2021/11/29 02:46:39;;;;;;;54.03;36.73;;;;;;;20.69;100.00;99127.08;1692860;84;21144;-75
2021/11/29 02:49:08;;;;;;;55.17;37.00;;;;;;;20.38;100.00;99121.44;1691322;84;20979;-72
2021/11/29 02:51:46;;;;;;;58.77;39.53;;;;;;;20.20;100.00;99118.64;1692554;83;21319;-75
2021/11/29 02:54:22;;;;;;;52.90;35.63;;;;;;;20.83;100.00;99111.56;1679709;84;21006;-75
2021/11/29 02:56:53;;;;;;;46.20;31.90;;;;;;;20.78;100.00;99116.13;1691958;83;20950;-73
2021/11/29 02:59:29;;;;;;;48.20;32.90;;;;;;;21.30;100.00;99109.28;1692319;84;21151;-76
2021/11/29 03:01:59;;;;;;;49.47;34.40;;;;;;;21.49;100.00;99106.18;1692231;84;21019;-76
2021/11/29 03:04:30;;;;;;;49.85;34.38;;;;;;;21.25;100.00;99101.37;1690074;84;20995;-77
2021/11/29 03:06:57;;;;;;;55.60;35.97;;;;;;;21.17;100.00;99105.96;1684962;83;20991;-76
2021/11/29 03:09:27;;;;;;;54.30;35.07;;;;;;;20.76;100.00;99103.69;1685984;83;21081;-77
2021/11/29 03:11:55;;;;;;;46.27;32.07;;;;;;;20.04;100.00;99115.27;1685823;83;21628;-77
2021/11/29 03:14:23;;;;;;;49.37;35.30;;;;;;;20.01;100.00;99108.69;1686710;83;21022;-75
2021/11/29 03:16:53;;;;;;;54.13;36.80;;;;;;;20.17;100.00;99103.56;1685164;83;20978;-73
2021/11/29 03:19:22;;;;;;;52.30;34.30;;;;;;;20.14;100.00;99103.31;1686163;83;21324;-76
2021/11/29 03:21:49;;;;;;;44.07;31.97;;;;;;;20.18;100.00;99101.16;1686046;85;21553;-76
2021/11/29 03:24:18;;;;;;;58.90;37.63;;;;;;;20.00;100.00;99102.34;1686274;85;21167;-71
2021/11/29 03:26:45;;;;;;;53.20;33.53;;;;;;;20.35;100.00;99100.81;1685223;85;21063;-71
2021/11/29 03:29:16;;;;;;;49.10;35.17;;;;;;;20.54;100.00;99093.56;1686198;85;21139;-77
2021/11/29 03:31:44;;;;;;;53.77;34.80;;;;;;;20.68;100.00;99093.16;1686066;83;21018;-74
2021/11/29 03:34:14;;;;;;;56.23;36.33;;;;;;;20.64;100.00;99086.30;1675707;85;20971;-76
2021/11/29 03:36:42;;;;;;;54.20;33.37;;;;;;;21.09;100.00;99077.67;1685399;85;21136;-73
2021/11/29 03:39:19;;;;;;;52.13;34.20;;;;;;;20.83;100.00;99081.64;1665192;85;21018;-75
2021/11/29 03:41:45;;;;;;;53.80;33.73;;;;;;;20.93;100.00;99088.72;1686119;85;21556;-73
2021/11/29 03:44:14;;;;;;;58.53;32.63;;;;;;;20.94;100.00;99086.31;1686795;85;20920;-73
2021/11/29 03:46:43;;;;;;;50.87;32.07;;;;;;;20.89;100.00;99083.19;1684773;83;21481;-72
2021/11/29 03:49:10;;;;;;;50.57;32.53;;;;;;;19.86;100.00;99087.61;1664620;85;21173;-72
2021/11/29 03:51:37;;;;;;;54.43;34.03;;;;;;;19.66;100.00;99092.44;1686084;83;20944;-73
2021/11/29 03:54:05;;;;;;;52.80;33.20;;;;;;;20.23;100.00;99087.64;1685989;83;21062;-73
2021/11/29 03:56:32;;;;;;;58.87;34.43;;;;;;;19.85;100.00;99090.80;1685572;83;21031;-71
2021/11/29 03:59:00;;;;;;;57.57;35.80;;;;;;;20.31;100.00;99091.05;1685680;83;21261;-73
2021/11/29 04:01:27;;;;;;;65.10;37.57;;;;;;;20.01;100.00;99092.03;1729833;79;21148;-73
2021/11/29 04:03:54;;;;;;;59.07;35.10;;;;;;;20.51;100.00;99088.28;1777589;80;20978;-73
2021/11/29 04:06:21;;;;;;;58.07;32.50;;;;;;;20.28;100.00;99083.12;1777579;80;21090;-74
2021/11/29 04:08:50;;;;;;;54.93;33.77;;;;;;;20.53;100.00;99083.52;1776637;80;20952;-74
2021/11/29 04:11:20;;;;;;;56.07;34.53;;;;;;;20.41;100.00;99086.45;1777386;80;21068;-74
2021/11/29 04:13:47;;;;;;;58.13;36.03;;;;;;;20.42;100.00;99084.63;1777523;80;21153;-73
2021/11/29 04:16:17;;;;;;;56.30;35.53;;;;;;;20.84;100.00;99091.19;1777616;79;21476;-75
2021/11/29 04:18:44;;;;;;;50.53;30.83;;;;;;;21.14;100.00;99106.01;1747314;79;20967;-74
2021/11/29 04:21:12;;;;;;;50.37;32.20;;;;;;;21.18;100.00;99108.34;1777563;79;21065;-74
2021/11/29 04:23:42;;;;;;;51.93;32.40;;;;;;;21.25;100.00;99101.37;1777362;79;20916;-74
2021/11/29 04:26:12;;;;;;;52.87;32.27;;;;;;;21.18;100.00;99099.61;1777009;80;21237;-71
2021/11/29 04:28:39;;;;;;;53.00;32.00;;;;;;;21.70;100.00;99096.64;1776679;79;20927;-75
2021/11/29 04:31:06;;;;;;;55.07;34.43;;;;;;;21.64;100.00;99096.47;1777430;80;21038;-73
2021/11/29 04:33:35;;;;;;;52.63;32.77;;;;;;;21.46;100.00;99093.48;1765814;80;20984;-78
2021/11/29 04:36:03;;;;;;;49.37;31.17;;;;;;;21.66;100.00;99098.29;1774748;80;20935;-73
2021/11/29 04:38:32;;;;;;;46.17;27.97;;;;;;;21.53;100.00;99097.12;1777058;80;21062;-73
2021/11/29 04:41:00;;;;;;;41.50;29.73;;;;;;;21.71;100.00;99092.94;1775838;79;20995;-80
2021/11/29 04:43:28;;;;;;;43.50;29.50;;;;;;;21.26;100.00;99098.99;1771914;79;20907;-79
2021/11/29 04:45:57;;;;;;;44.47;27.53;;;;;;;21.42;100.00;99096.45;1753148;80;21536;-74
2021/11/29 04:48:24;;;;;;;41.00;26.13;;;;;;;20.84;100.00;99101.78;1754410;80;21066;-79
2021/11/29 04:50:51;;;;;;;38.03;26.87;;;;;;;19.73;100.00;99100.09;1758976;80;21544;-74
2021/11/29 04:53:18;;;;;;;37.97;28.30;;;;;;;19.32;100.00;99103.66;1776921;79;20994;-74
2021/11/29 04:55:46;;;;;;;36.83;26.90;;;;;;;19.62;100.00;99095.37;1777065;79;20971;-72
2021/11/29 04:58:14;;;;;;;34.00;23.77;;;;;;;19.97;100.00;99091.79;1776550;79;21041;-80
2021/11/29 05:00:41;;;;;;;46.30;27.40;;;;;;;20.12;100.00;99094.34;1769133;80;21062;-73
2021/11/29 05:03:08;;;;;;;40.00;25.93;;;;;;;20.72;100.00;99104.80;1770574;79;21160;-76
2021/11/29 05:05:35;;;;;;;32.90;24.40;;;;;;;19.75;100.00;99110.66;1777185;80;21536;-79
2021/11/29 05:08:04;;;;;;;38.37;25.67;;;;;;;20.03;100.00;99115.81;1776595;79;21449;-75
2021/11/29 05:10:32;;;;;;;33.17;24.90;;;;;;;20.32;100.00;99106.64;1777184;79;20992;-74
2021/11/29 05:12:59;;;;;;;27.13;21.30;;;;;;;20.79;100.00;99115.05;1775099;80;20978;-75
2021/11/29 05:15:26;;;;;;;23.97;18.93;;;;;;;20.91;100.00;99119.47;1776125;79;21213;-75
2021/11/29 05:17:53;;;;;;;31.63;21.90;;;;;;;20.32;100.00;99121.73;1776516;79;21030;-76
2021/11/29 05:20:21;;;;;;;29.43;19.37;;;;;;;20.17;100.00;99122.62;1777062;80;21111;-78
2021/11/29 05:22:49;;;;;;;27.87;20.30;;;;;;;20.44;100.00;99126.15;1776764;79;20919;-72
2021/11/29 05:25:19;;;;;;;33.33;22.23;;;;;;;20.34;100.00;99123.56;1762192;80;21165;-79
2021/11/29 05:27:46;;;;;;;28.87;20.80;;;;;;;20.24;100.00;99136.88;1762739;80;21160;-76
2021/11/29 05:30:13;;;;;;;29.87;22.53;;;;;;;20.08;100.00;99134.85;1767954;80;21102;-86
2021/11/29 05:32:41;;;;;;;28.60;20.47;;;;;;;20.50;100.00;99129.59;1773072;80;21534;-82
2021/11/29 05:35:10;;;;;;;31.53;19.97;;;;;;;20.62;100.00;99128.70;1773016;80;38653;-85
2021/11/29 05:37:37;;;;;;;29.93;20.77;;;;;;;20.69;100.00;99127.08;1777194;80;20998;-75
2021/11/29 05:40:05;;;;;;;31.07;20.17;;;;;;;20.64;100.00;99133.96;1732531;82;21057;-79
2021/11/29 05:42:34;;;;;;;24.57;18.10;;;;;;;20.50;100.00;99127.73;1719930;83;20959;-78
2021/11/29 05:45:01;;;;;;;23.43;17.70;;;;;;;20.22;100.00;99131.05;1716813;82;21071;-79
2021/11/29 05:47:28;;;;;;;29.57;19.40;;;;;;;20.30;100.00;99139.73;1704496;83;21126;-77
2021/11/29 05:49:55;;;;;;;25.63;18.27;;;;;;;20.52;100.00;99138.83;1712592;82;22219;-77
2021/11/29 05:52:22;;;;;;;25.93;18.47;;;;;;;20.06;100.00;99150.98;1705701;83;21142;-76
2021/11/29 05:54:49;;;;;;;23.70;17.10;;;;;;;20.41;100.00;99150.52;1707080;83;20940;-76
2021/11/29 05:57:16;;;;;;;25.23;19.93;;;;;;;20.57;100.00;99149.91;1716849;82;20907;-77
2021/11/29 05:59:44;;;;;;;28.27;19.93;;;;;;;20.55;100.00;99155.48;1715815;83;21045;-78
2021/11/29 06:02:11;;;;;;;22.07;16.87;;;;;;;21.08;100.00;99155.59;1703156;82;20900;-80
2021/11/29 06:04:38;;;;;;;23.90;16.93;;;;;;;20.73;100.00;99158.55;1711902;82;21102;-79
2021/11/29 06:07:05;;;;;;;21.53;15.80;;;;;;;21.05;100.00;99153.50;1710850;82;21020;-79
2021/11/29 06:09:32;;;;;;;18.80;14.87;;;;;;;21.11;100.00;99152.94;1710847;83;21123;-80
2021/11/29 06:11:59;;;;;;;20.80;15.80;;;;;;;20.67;100.00;99119.93;1711480;83;20943;-78
2021/11/29 06:14:26;;;;;;;21.50;14.50;;;;;;;20.73;100.00;99129.42;1712206;83;21615;-77
2021/11/29 06:16:57;;;;;;;19.93;16.50;;;;;;;20.65;100.00;99126.30;1707356;82;20960;-79
2021/11/29 06:19:24;;;;;;;20.27;15.43;;;;;;;21.43;100.00;99143.09;1690764;82;21050;-78
2021/11/29 06:21:51;;;;;;;23.40;15.60;;;;;;;21.30;100.00;99141.88;1696562;83;20960;-81
2021/11/29 06:24:19;;;;;;;23.53;16.80;;;;;;;21.26;100.00;99139.54;1692008;83;20987;-81
2021/11/29 06:26:45;;;;;;;20.53;14.47;;;;;;;21.12;100.00;99131.45;1691027;82;21041;-77
2021/11/29 06:29:13;;;;;;;20.23;14.57;;;;;;;21.52;100.00;99133.46;1692619;82;21955;-83
2021/11/29 06:31:41;;;;;;;18.83;14.43;;;;;;;21.97;100.00;99133.17;1688594;83;21039;-79
2021/11/29 06:34:09;;;;;;;20.77;15.00;;;;;;;21.98;100.00;99138.75;1692493;83;21592;-82
2021/11/29 06:36:36;;;;;;;21.03;15.73;;;;;;;21.70;100.00;99139.87;1690662;83;21032;-82
2021/11/29 06:39:04;;;;;;;20.57;17.20;;;;;;;21.98;100.00;99146.72;1694532;83;21538;-75
2021/11/29 06:41:31;;;;;;;22.20;16.40;;;;;;;21.26;100.00;99157.30;1689913;82;21468;-79
2021/11/29 06:43:58;;;;;;;23.93;19.27;;;;;;;21.13;100.00;99154.22;1692738;83;20940;-82
2021/11/29 06:46:26;;;;;;;22.93;17.23;;;;;;;21.64;100.00;99155.61;1690446;83;20920;-77
2021/11/29 06:48:53;;;;;;;21.37;16.47;;;;;;;21.71;100.00;99151.30;1692090;82;21055;-75
2021/11/29 06:51:24;;;;;;;22.03;17.27;;;;;;;21.24;100.00;99152.80;1691905;83;20916;-77
2021/11/29 06:53:50;;;;;;;22.03;17.30;;;;;;;21.46;100.00;99150.48;1689752;83;22020;-78
2021/11/29 06:56:17;;;;;;;22.50;16.93;;;;;;;;;;1691418;83;21091;-79
2021/11/29 06:58:46;;;;;;;21.73;16.53;;;;;;;21.80;100.00;99146.92;1689350;83;21062;-78
2021/11/29 07:01:13;;;;;;;18.83;14.10;;;;;;;21.32;100.00;99147.67;1693100;83;20960;-75
2021/11/29 07:03:40;;;;;;;21.93;15.20;;;;;;;21.78;100.00;99134.47;1701751;83;21173;-80
2021/11/29 07:06:08;;;;;;;18.70;14.90;;;;;;;22.08;100.00;99139.38;1700598;83;21957;-78
2021/11/29 07:08:35;;;;;;;22.83;16.73;;;;;;;21.97;98.85;99139.80;1710329;82;21099;-77
2021/11/29 07:11:02;;;;;;;25.33;17.97;;;;;;;21.79;100.00;99140.84;1707888;81;21001;-77
2021/11/29 07:13:29;;;;;;;25.97;18.80;;;;;;;21.90;98.20;99150.79;1701873;83;20956;-75
2021/11/29 07:15:57;;;;;;;27.83;18.77;;;;;;;21.36;100.00;99153.23;1716782;82;20998;-78
2021/11/29 07:18:25;;;;;;;30.40;20.63;;;;;;;21.46;100.00;99154.47;1716096;83;21132;-80
2021/11/29 07:20:51;;;;;;;30.53;21.93;;;;;;;;;;1716027;81;20991;-79
2021/11/29 07:23:18;;;;;;;36.10;24.33;;;;;;;21.57;100.00;99161.78;1671059;82;21063;-78
2021/11/29 07:25:45;;;;;;;37.60;24.30;;;;;;;21.89;100.00;99159.02;1716709;81;21120;-78
2021/11/29 07:28:14;;;;;;;41.80;25.50;;;;;;;21.54;100.00;99164.45;1718849;82;21627;-78
2021/11/29 07:30:41;;;;;;;43.13;28.30;;;;;;;21.66;100.00;99161.94;1716503;83;21970;-79
2021/11/29 07:33:08;;;;;;;42.73;28.77;;;;;;;21.76;100.00;99154.66;1728579;81;20947;-77
2021/11/29 07:35:37;;;;;;;45.77;28.53;;;;;;;21.68;99.34;99167.77;1729001;81;21069;-79
2021/11/29 07:38:04;;;;;;;36.23;24.23;;;;;;;21.75;98.22;99150.98;1717883;81;21669;-80
2021/11/29 07:40:31;;;;;;;34.77;22.77;;;;;;;21.69;100.00;99144.14;1713957;82;21145;-80
2021/11/29 07:43:02;;;;;;;33.37;23.53;;;;;;;21.34;100.00;99148.77;1699507;83;21136;-78
2021/11/29 07:45:29;;;;;;;31.10;22.37;;;;;;;21.43;100.00;99152.38;1694705;82;21047;-83
2021/11/29 07:47:56;;;;;;;28.40;20.00;;;;;;;20.37;100.00;99157.42;1697861;83;21611;-83
2021/11/29 07:50:23;;;;;;;28.03;19.80;;;;;;;20.49;100.00;99139.37;1695593;83;21090;-84
2021/11/29 07:52:50;;;;;;;27.17;17.60;;;;;;;20.61;100.00;99137.73;1696614;83;21570;-76
2021/11/29 07:55:21;;;;;;;24.47;18.83;;;;;;;20.36;100.00;99136.00;1698796;83;22232;-81
2021/11/29 07:57:47;;;;;;;22.63;17.83;;;;;;;20.31;100.00;99129.42;1699924;83;22086;-80
2021/11/29 08:00:21;;;;;;;22.47;17.67;;;;;;;20.14;100.00;99120.52;1697835;83;21083;-81
2021/11/29 08:02:52;;;;;;;21.53;15.40;;;;;;;19.87;100.00;99131.50;1703624;82;21505;-79
2021/11/29 08:05:21;;;;;;;20.12;15.85;;;;;;;20.26;100.00;99130.77;1698683;83;21077;-80
2021/11/29 08:07:49;;;;;;;19.47;14.97;;;;;;;20.31;100.00;99124.13;1703967;82;21178;-82
2021/11/29 08:10:17;;;;;;;20.53;14.27;;;;;;;20.61;100.00;99122.63;1705812;83;21074;-81
2021/11/29 08:12:46;;;;;;;16.87;13.70;;;;;;;20.87;100.00;99117.09;1699285;82;21005;-81
2021/11/29 08:15:13;;;;;;;17.03;15.10;;;;;;;20.90;100.00;99117.87;1707646;83;21006;-79
2021/11/29 08:17:40;;;;;;;22.70;16.37;;;;;;;20.76;100.00;99110.31;1699590;83;21103;-78
2021/11/29 08:20:09;;;;;;;23.73;17.50;;;;;;;21.11;100.00;99106.02;1699509;83;21203;-79
2021/11/29 08:22:37;;;;;;;26.40;19.07;;;;;;;21.64;100.00;99106.54;1701260;83;21424;-78
2021/11/29 08:25:06;;;;;;;25.17;18.63;;;;;;;22.01;100.00;99104.48;1698804;83;20951;-77
2021/11/29 08:27:34;;;;;;;26.83;18.27;;;;;;;21.85;100.00;99108.39;1696035;82;22418;-77
2021/11/29 08:30:04;;;;;;;17.70;15.20;;;;;;;21.81;100.00;99106.05;1698795;83;21065;-75
2021/11/29 08:32:31;;;;;;;17.37;13.77;;;;;;;21.61;100.00;99097.82;1695723;83;21187;-79
2021/11/29 08:34:58;;;;;;;16.53;13.10;;;;;;;21.51;100.00;99089.44;1702978;83;21023;-79
2021/11/29 08:37:25;;;;;;;17.10;14.30;;;;;;;21.54;100.00;99085.44;1698421;83;21093;-78
2021/11/29 08:39:52;;;;;;;16.63;14.27;;;;;;;21.46;100.00;99071.48;1696600;82;21070;-78
2021/11/29 08:42:19;;;;;;;20.27;15.43;;;;;;;22.17;100.00;99055.97;1696961;83;20911;-79
2021/11/29 08:44:46;;;;;;;20.00;16.77;;;;;;;22.85;94.34;99055.14;1694968;83;21148;-79
2021/11/29 08:47:14;;;;;;;23.73;17.77;;;;;;;22.07;100.00;99056.87;1702837;81;21583;-79
2021/11/29 08:49:43;;;;;;;17.97;15.97;;;;;;;22.46;95.10;99053.11;1706658;82;21070;-78
2021/11/29 08:52:11;;;;;;;20.67;16.07;;;;;;;22.03;99.77;99051.89;1696633;83;21538;-76
2021/11/29 08:54:40;;;;;;;19.53;14.83;;;;;;;22.38;95.84;99052.99;1694140;83;21030;-79
2021/11/29 08:57:10;;;;;;;19.93;15.07;;;;;;;21.54;99.41;99057.06;1705631;83;21164;-79
2021/11/29 08:59:37;;;;;;;19.00;14.33;;;;;;;20.74;100.00;99068.22;1694073;83;21146;-79
2021/11/29 09:02:04;;;;;;;17.90;13.97;;;;;;;20.62;100.00;99066.48;1704859;82;21010;-78
2021/11/29 09:04:31;;;;;;;19.37;14.63;;;;;;;20.74;100.00;99044.39;1702154;83;21615;-80
2021/11/29 09:06:59;;;;;;;17.10;13.80;;;;;;;20.61;100.00;99052.46;1705573;82;21034;-76
2021/11/29 09:09:31;;;;;;;17.50;13.43;;;;;;;21.11;100.00;99039.78;1708963;83;21674;-77
2021/11/29 09:11:59;;;;;;;16.50;13.13;;;;;;;21.18;100.00;99026.73;1697899;82;20948;-77
2021/11/29 09:14:26;;;;;;;16.00;13.10;;;;;;;21.19;100.00;99015.06;1694675;83;21002;-78
2021/11/29 09:16:56;;;;;;;13.30;11.90;;;;;;;21.02;100.00;99014.17;1708702;83;20967;-81
2021/11/29 09:19:24;;;;;;;11.23;10.13;;;;;;;20.96;100.00;99011.34;1716372;83;21098;-78
2021/11/29 09:21:52;;;;;;;14.03;10.53;;;;;;;21.09;100.00;99010.66;1710283;82;21123;-83
2021/11/29 09:24:20;;;;;;;10.80;9.70;;;;;;;21.60;100.00;99013.50;1716312;83;20912;-76
2021/11/29 09:26:47;;;;;;;10.10;8.87;;;;;;;21.69;100.00;99008.88;1692536;83;20996;-78
2021/11/29 09:29:15;;;;;;;11.67;9.00;;;;;;;21.80;100.00;98999.70;1715001;82;21078;-78
2021/11/29 09:31:42;;;;;;;8.70;7.80;;;;;;;22.07;100.00;99002.47;1710226;83;21575;-76
2021/11/29 09:34:09;;;;;;;13.03;8.40;;;;;;;22.44;96.04;99001.39;1701867;83;22579;-82
2021/11/29 09:36:36;;;;;;;11.17;9.67;;;;;;;22.83;89.76;99015.56;1717181;82;21003;-75
2021/11/29 09:39:05;;;;;;;14.83;13.17;;;;;;;22.76;88.19;99007.97;1715913;83;21279;-79
2021/11/29 09:41:34;;;;;;;13.63;10.77;;;;;;;23.04;83.29;98999.52;1716980;82;21555;-78
2021/11/29 09:44:01;;;;;;;15.53;13.83;;;;;;;22.33;92.68;98992.80;1717011;83;21022;-79
2021/11/29 09:46:29;;;;;;;12.73;11.27;;;;;;;22.32;92.32;98989.91;1699012;83;21947;-78
2021/11/29 09:48:57;;;;;;;11.10;9.40;;;;;;;22.84;85.54;98991.89;1693872;83;20970;-79
2021/11/29 09:51:24;;;;;;;13.50;9.67;;;;;;;22.31;89.18;98986.98;1705863;83;21066;-78
2021/11/29 09:53:51;;;;;;;12.63;9.33;;;;;;;22.77;85.53;98994.17;1715946;82;22176;-81
2021/11/29 09:56:18;;;;;;;12.63;9.40;;;;;;;22.43;89.65;98989.98;1713534;82;21002;-80
2021/11/29 09:58:47;;;;;;;13.07;8.63;;;;;;;21.68;98.42;98994.05;1710375;82;21120;-80
2021/11/29 10:01:15;;;;;;;12.60;9.97;;;;;;;21.45;100.00;98991.71;1697183;83;21042;-83
2021/11/29 10:03:42;;;;;;;12.70;10.17;;;;;;;21.53;100.00;98985.22;1691730;83;21115;-85
2021/11/29 10:06:09;;;;;;;14.17;10.47;;;;;;;21.30;100.00;98986.03;1697661;83;20975;-82
2021/11/29 10:08:40;;;;;;;17.57;12.60;;;;;;;21.54;100.00;98985.47;1704348;83;21526;-80
2021/11/29 10:11:12;;;;;;;17.33;11.87;;;;;;;21.47;100.00;98966.47;1712752;83;21130;-78
2021/11/29 10:14:02;;;;;;;14.77;10.70;;;;;;;21.95;100.00;98961.00;1713023;82;20944;-77
2021/11/29 10:16:35;;;;;;;19.07;12.00;;;;;;;22.46;94.43;98959.39;1713854;82;21055;-77
2021/11/29 10:19:05;;;;;;;19.93;12.13;;;;;;;22.09;98.34;98962.39;1712007;82;21272;-77
2021/11/29 10:21:32;;;;;;;21.33;12.47;;;;;;;22.42;93.75;98963.70;1712992;83;21501;-76
2021/11/29 10:23:59;;;;;;;24.03;16.63;;;;;;;22.53;91.83;98954.48;1705090;82;21503;-74
2021/11/29 10:26:32;;;;;;;19.63;12.20;;;;;;;22.90;87.73;98944.22;1708704;83;20947;-77
2021/11/29 10:29:06;;;;;;;20.10;13.93;;;;;;;22.36;93.75;98944.44;1708301;83;21060;-76
2021/11/29 10:31:50;;;;;;;16.97;11.77;;;;;;;22.96;87.02;98936.98;1707598;83;21033;-76
2021/11/29 10:34:27;;;;;;;20.07;12.77;;;;;;;23.21;84.84;98922.35;1700450;83;20940;-75
2021/11/29 10:36:59;;;;;;;18.77;13.20;;;;;;;23.03;85.48;98923.53;1689231;83;21153;-74
2021/11/29 10:39:36;;;;;;;17.93;11.90;;;;;;;22.76;88.91;98924.83;1711490;83;20943;-76
2021/11/29 10:42:07;;;;;;;19.57;12.70;;;;;;;22.29;95.79;98909.52;1696035;82;21008;-73
2021/11/29 10:44:39;;;;;;;17.13;12.03;;;;;;;23.03;87.37;98908.10;1696797;83;20972;-73
2021/11/29 10:47:13;;;;;;;19.67;11.70;;;;;;;23.03;85.51;98892.97;1691382;83;21067;-73
2021/11/29 10:49:52;;;;;;;17.50;11.40;;;;;;;21.95;97.81;98893.34;1689561;83;21129;-73
2021/11/29 10:52:29;;;;;;;14.73;12.33;;;;;;;22.69;90.64;98883.27;1691545;83;21430;-73
2021/11/29 10:54:57;;;;;;;21.13;13.13;;;;;;;22.74;91.11;98877.32;1692386;83;21138;-72
2021/11/29 10:57:24;;;;;;;17.50;10.00;;;;;;;22.74;91.05;98872.55;1692686;83;20951;-72
2021/11/29 10:59:53;;;;;;;19.83;13.80;;;;;;;22.30;94.24;98864.08;1699390;82;21532;-73
2021/11/29 11:02:28;;;;;;;18.63;11.30;;;;;;;22.07;97.38;98865.80;1712942;83;21113;-73
2021/11/29 11:05:07;;;;;;;18.30;11.87;;;;;;;21.84;100.00;98866.20;1707443;83;21481;-73
2021/11/29 11:07:36;;;;;;;21.70;11.80;;;;;;;21.70;100.00;98868.56;1697391;84;21100;-74
2021/11/29 11:10:09;;;;;;;26.83;13.13;;;;;;;21.44;100.00;98859.70;1702054;84;21066;-74
2021/11/29 11:12:37;;;;;;;22.17;12.17;;;;;;;21.40;100.00;98866.63;1691911;84;21541;-74
2021/11/29 11:15:14;;;;;;;25.27;13.57;;;;;;;20.93;100.00;98856.39;1695210;84;21153;-73
2021/11/29 11:17:41;;;;;;;19.17;11.37;;;;;;;21.74;100.00;98843.03;1694380;84;21142;-74